Time;durP1;ratioP1;P1;durP2;ratioP2;P2;SDS_P1;SDS_P2;PMS_P1;PMS_P2;Temp;Humidity;BMP_temperature;BMP_pressure;BME280_temperature;BME280_humidity;BME280_pressure;Samples;Min_cycle;Max_cycle;Signal;HPM_P1;HPM_P2
2022/05/09 00:00:48;;;;;;;5.25;4.75;;;;;;;13.95;63.87;96536.81;10336428;28;96863;-69
2022/05/09 00:05:51;;;;;;;5.30;4.80;;;;;;;13.79;63.86;96540.25;10341069;28;97358;-69
2022/05/09 00:10:54;;;;;;;5.45;4.70;;;;;;;13.74;63.68;96535.50;10342519;28;98538;-70
2022/05/09 00:15:58;;;;;;;5.47;4.97;;;;;;;13.79;63.55;96524.50;10345429;28;98541;-70
2022/05/09 00:21:02;;;;;;;8.57;5.03;;;;;;;13.86;63.96;96520.22;10339623;28;98278;-70
2022/05/09 00:26:04;;;;;;;7.85;5.20;;;;;;;13.91;63.97;96520.56;10341578;28;96863;-69
2022/05/09 00:31:09;;;;;;;6.50;5.25;;;;;;;13.89;64.58;96527.78;10338387;28;96894;-69
2022/05/09 00:36:12;;;;;;;5.97;5.37;;;;;;;13.78;64.59;96522.88;10343867;28;97311;-70
2022/05/09 00:41:31;;;;;;;6.03;5.20;;;;;;;13.71;65.47;96529.75;10350894;28;98253;-70
2022/05/09 00:46:36;;;;;;;5.57;5.05;;;;;;;13.76;65.01;96527.47;10343406;28;98877;-70
2022/05/09 00:51:39;;;;;;;6.10;5.25;;;;;;;13.78;65.30;96522.88;10337352;28;97563;-70
2022/05/09 00:56:51;;;;;;;6.22;5.15;;;;;;;13.81;65.77;96527.78;10347214;28;97287;-69
2022/05/09 01:01:55;;;;;;;6.05;5.45;;;;;;;13.82;64.91;96530.25;10345913;28;98263;-70
2022/05/09 01:06:59;;;;;;;6.00;5.30;;;;;;;13.76;66.02;96538.78;10345385;28;100204;-69
2022/05/09 01:12:03;;;;;;;4.97;4.53;;;;;;;13.72;66.13;96540.06;10342689;28;97997;-70
2022/05/09 01:17:10;;;;;;;7.17;5.20;;;;;;;13.78;65.78;96538.63;10349720;28;97221;-70
2022/05/09 01:22:23;;;;;;;6.97;5.25;;;;;;;13.79;65.60;96538.47;10338471;28;96901;-69
2022/05/09 01:27:26;;;;;;;5.82;5.22;;;;;;;13.76;66.42;96543.22;10338655;28;98287;-70
2022/05/09 01:32:35;;;;;;;6.07;5.35;;;;;;;13.69;67.13;96534.31;10337745;28;98700;-70
2022/05/09 01:37:46;;;;;;;6.47;5.22;;;;;;;13.50;67.13;96533.59;10338005;28;97956;-70
2022/05/09 01:42:49;;;;;;;6.00;5.00;;;;;;;13.42;67.44;96541.44;10334375;28;98824;-69
2022/05/09 01:53:15;;;;;;;5.40;4.90;;;;;;;13.47;66.72;96539.16;10340915;28;97034;-69
2022/05/09 01:58:18;;;;;;;6.72;5.63;;;;;;;13.44;67.33;96544.72;10338169;28;97919;-69
2022/05/09 02:03:21;;;;;;;6.05;5.45;;;;;;;13.28;67.78;96552.53;10347091;28;98649;-69
2022/05/09 02:08:25;;;;;;;6.25;5.65;;;;;;;13.06;69.03;96557.34;10344422;28;97244;-69
2022/05/09 02:13:28;;;;;;;7.20;5.57;;;;;;;13.02;68.91;96561.25;10335875;28;97324;-69
2022/05/09 02:18:33;;;;;;;6.00;5.47;;;;;;;13.07;68.62;96556.38;10335624;28;98561;-69
2022/05/09 02:23:37;;;;;;;;;;;;;;;13.15;68.12;96559.03;10337809;28;98677;-69
2022/05/09 02:28:40;;;;;;;6.32;5.72;;;;;;;13.18;68.35;96556.09;10338596;28;98546;-69
2022/05/09 02:33:43;;;;;;;7.35;6.05;;;;;;;13.10;67.67;96550.81;10337107;28;99038;-69
2022/05/09 02:38:47;;;;;;;6.97;5.82;;;;;;;13.01;68.78;96554.34;10339499;28;99058;-70
2022/05/09 02:43:50;;;;;;;6.17;5.57;;;;;;;12.85;68.98;96553.25;10329043;28;97787;-69
2022/05/09 02:48:55;;;;;;;6.80;6.10;;;;;;;12.75;69.46;96557.78;10343680;28;97631;-69
2022/05/09 02:53:59;;;;;;;8.27;6.90;;;;;;;12.57;70.31;96560.41;10341906;28;98637;-69
2022/05/09 02:59:03;;;;;;;7.72;6.13;;;;;;;12.42;70.63;96556.69;10334449;28;98579;-69
2022/05/09 03:09:28;;;;;;;7.68;6.85;;;;;;;12.33;72.24;96568.91;10345712;28;102788;-69
2022/05/09 03:14:31;;;;;;;6.80;6.10;;;;;;;12.42;71.62;96573.25;10338308;28;98442;-69
2022/05/09 03:19:34;;;;;;;6.82;6.13;;;;;;;12.42;72.54;96577.66;10332983;28;96923;-69
2022/05/09 03:24:38;;;;;;;8.02;7.18;;;;;;;12.31;72.77;96574.28;10335638;28;98569;-70
2022/05/09 03:29:41;;;;;;;8.10;6.30;;;;;;;12.37;72.56;96586.00;10333017;28;96917;-69
2022/05/09 03:34:44;;;;;;;7.85;6.80;;;;;;;12.49;72.21;96586.56;10335251;28;99291;-69
2022/05/09 03:39:48;;;;;;;6.88;6.18;;;;;;;12.63;71.86;96579.94;10344094;28;97488;-69
2022/05/09 03:44:51;;;;;;;7.00;6.27;;;;;;;12.75;71.21;96581.38;10333793;28;97381;-69
2022/05/09 03:49:57;;;;;;;7.07;6.05;;;;;;;12.85;71.39;96584.69;10334080;28;97024;-69
2022/05/09 03:55:01;;;;;;;6.95;6.07;;;;;;;12.91;71.22;96587.72;10332692;28;97596;-68
2022/05/09 04:00:05;;;;;;;5.87;5.33;;;;;;;12.93;70.55;96585.78;10345456;28;96882;-68
2022/05/09 04:05:14;;;;;;;8.23;6.45;;;;;;;12.94;70.99;96603.16;10345930;28;97840;-69
2022/05/09 04:10:21;;;;;;;7.85;6.40;;;;;;;12.86;71.07;96591.59;10340919;28;98308;-69
2022/05/09 04:20:44;;;;;;;7.20;6.40;;;;;;;12.64;71.91;96597.34;10344332;28;97800;-69
2022/05/09 04:25:49;;;;;;;9.18;6.90;;;;;;;12.57;72.24;96602.34;10342420;28;98649;-68
2022/05/09 04:30:53;;;;;;;;;;;;;;;12.52;71.95;96603.78;10339069;28;98649;-69
2022/05/09 04:36:02;;;;;;;7.43;6.72;;;;;;;12.54;72.50;96613.13;10342149;28;100612;-69
2022/05/09 04:41:06;;;;;;;8.50;6.90;;;;;;;12.39;72.84;96614.66;10348687;28;98687;-69
2022/05/09 04:46:09;;;;;;;7.53;6.50;;;;;;;12.37;73.46;96617.44;10342111;28;98416;-68
2022/05/09 04:51:13;;;;;;;8.45;7.10;;;;;;;12.46;73.39;96619.13;10347251;28;96898;-69
2022/05/09 04:56:18;;;;;;;8.63;7.80;;;;;;;12.62;73.27;96623.69;10349002;28;98284;-69
2022/05/09 05:01:21;;;;;;;8.87;7.43;;;;;;;12.73;72.57;96624.44;10337805;28;98449;-69
2022/05/09 05:06:23;;;;;;;9.27;6.90;;;;;;;12.80;72.72;96623.66;10340948;28;97037;-68
2022/05/09 05:11:28;;;;;;;8.07;7.28;;;;;;;12.98;71.95;96628.13;10341579;28;97427;-69
2022/05/09 05:21:47;;;;;;;7.68;6.88;;;;;;;13.33;71.05;96635.06;10341126;28;98339;-69
2022/05/09 05:26:56;;;;;;;7.22;6.53;;;;;;;13.53;70.59;96646.13;10337284;28;98869;-69
2022/05/09 05:31:59;;;;;;;10.57;7.32;;;;;;;13.66;71.06;96650.16;10335018;28;98789;-69
2022/05/09 05:37:02;;;;;;;6.45;5.82;;;;;;;13.84;69.91;96658.75;10355929;28;98616;-69
2022/05/09 05:42:07;;;;;;;7.05;6.35;;;;;;;14.01;68.98;96659.66;10354674;28;97977;-69
2022/05/09 05:47:12;;;;;;;6.45;5.30;;;;;;;14.12;69.02;96661.16;10353799;28;98518;-69
2022/05/09 05:52:16;;;;;;;6.78;5.30;;;;;;;14.31;68.07;96663.53;10349837;28;98669;-68
2022/05/09 05:57:24;;;;;;;7.65;5.20;;;;;;;14.41;67.53;96666.03;10345780;28;96941;-69
2022/05/09 06:02:28;;;;;;;6.10;5.50;;;;;;;14.55;67.14;96677.72;10352782;28;96936;-69
2022/05/09 06:07:30;;;;;;;5.65;5.13;;;;;;;14.66;66.74;96677.44;10350723;28;97898;-69
2022/05/09 06:12:35;;;;;;;6.80;5.75;;;;;;;14.81;66.12;96682.03;10346717;28;98620;-69
2022/05/09 06:17:39;;;;;;;6.00;4.93;;;;;;;15.01;65.48;96683.38;10358272;28;99387;-68
2022/05/09 06:22:42;;;;;;;6.40;5.75;;;;;;;15.20;65.86;96691.88;10348693;28;99120;-69
2022/05/09 06:27:47;;;;;;;7.35;5.22;;;;;;;15.36;64.81;96691.06;10353091;28;97018;-69
2022/05/09 06:32:50;;;;;;;;;;;;;;;15.61;64.77;96697.16;10336332;28;96913;-69
2022/05/09 06:37:57;;;;;;;6.30;5.47;;;;;;;15.78;64.09;96696.09;10355337;28;96976;-69
2022/05/09 06:43:03;;;;;;;6.00;5.40;;;;;;;15.94;63.95;96699.69;10336592;28;96825;-68
2022/05/09 06:48:08;;;;;;;7.63;5.40;;;;;;;16.04;63.30;96713.50;10335945;28;96758;-68
2022/05/09 06:53:13;;;;;;;6.28;5.68;;;;;;;16.13;63.02;96709.81;10344299;28;97798;-69
2022/05/09 06:58:24;;;;;;;6.78;5.50;;;;;;;16.17;62.51;96703.22;10342107;28;96701;-68
2022/05/09 07:03:30;;;;;;;6.55;5.47;;;;;;;16.03;62.76;96707.41;10338056;28;98012;-68
2022/05/09 07:08:33;;;;;;;7.18;6.35;;;;;;;15.84;63.08;96711.25;10343072;28;96829;-69
2022/05/09 07:13:39;;;;;;;6.15;5.55;;;;;;;15.84;62.80;96703.34;10342444;28;96918;-69
2022/05/09 07:18:42;;;;;;;6.50;5.82;;;;;;;15.89;62.85;96702.81;10351373;28;96697;-69
2022/05/09 07:23:45;;;;;;;7.00;6.30;;;;;;;15.65;63.19;96708.97;10340931;28;96896;-69
2022/05/09 07:28:49;;;;;;;7.50;5.90;;;;;;;15.52;63.07;96712.09;10342551;28;97797;-69
2022/05/09 07:33:52;;;;;;;;;;;;;;;15.59;63.02;96707.84;10349082;28;102193;-69
2022/05/09 07:38:55;;;;;;;7.20;6.50;;;;;;;15.62;62.78;96718.03;10350448;28;98452;-68
2022/05/09 07:44:00;;;;;;;8.70;7.30;;;;;;;15.75;63.22;96711.44;10355224;28;96810;-68
2022/05/09 07:49:03;;;;;;;8.13;6.57;;;;;;;15.91;62.79;96710.56;10352024;28;97244;-69
2022/05/09 07:54:06;;;;;;;7.03;6.32;;;;;;;16.06;62.80;96719.41;10355201;28;96752;-68
2022/05/09 07:59:20;;;;;;;7.38;6.68;;;;;;;16.15;62.61;96713.09;10354815;28;99969;-69
2022/05/09 08:04:23;;;;;;;8.05;7.25;;;;;;;16.28;62.18;96717.03;10354205;28;99151;-68
2022/05/09 08:09:26;;;;;;;7.22;6.53;;;;;;;16.36;62.24;96714.34;10348495;28;96739;-68
2022/05/09 08:14:30;;;;;;;8.10;6.75;;;;;;;16.47;62.03;96721.88;10354585;28;96952;-69
2022/05/09 08:19:34;;;;;;;7.72;6.47;;;;;;;16.59;61.90;96709.94;10354435;28;97021;-69
2022/05/09 08:24:37;;;;;;;9.25;6.60;;;;;;;16.70;61.50;96716.63;10349817;28;96921;-68
2022/05/09 08:29:41;;;;;;;6.45;5.85;;;;;;;16.81;61.51;96710.16;10353487;28;99753;-68
2022/05/09 08:34:44;;;;;;;6.68;6.07;;;;;;;16.92;60.74;96709.75;10355408;28;96777;-69
2022/05/09 08:39:48;;;;;;;6.93;6.22;;;;;;;17.06;60.81;96709.97;10349324;28;96738;-69
2022/05/09 08:45:22;;;;;;;7.05;6.35;;;;;;;17.19;60.80;96704.91;10348910;28;96848;-69
2022/05/09 08:50:30;;;;;;;7.70;6.13;;;;;;;17.35;60.21;96710.06;10358961;28;97024;-69
2022/05/09 08:55:35;;;;;;;6.70;6.10;;;;;;;17.48;59.96;96706.00;10347371;28;97134;-69
2022/05/09 09:00:39;;;;;;;7.05;6.35;;;;;;;17.53;59.70;96709.75;10341135;28;96683;-69
2022/05/09 09:05:47;;;;;;;6.97;6.25;;;;;;;17.65;59.66;96719.88;10345561;28;96906;-68
2022/05/09 09:11:00;;;;;;;7.18;6.28;;;;;;;17.71;59.13;96719.94;10348027;28;96879;-68
2022/05/09 09:16:17;;;;;;;8.03;6.67;;;;;;;17.76;58.94;96712.31;10342074;28;96829;-69
2022/05/09 09:21:28;;;;;;;7.35;6.60;;;;;;;17.88;59.11;96709.25;10341890;28;96662;-68
2022/05/09 09:26:39;;;;;;;7.15;6.28;;;;;;;17.70;59.02;96713.03;10347010;28;96880;-68
2022/05/09 09:31:47;;;;;;;7.30;6.60;;;;;;;17.91;58.65;96709.72;10344632;28;97231;-69
2022/05/09 09:36:55;;;;;;;7.97;7.10;;;;;;;17.90;58.81;96702.78;10342152;28;96829;-69
2022/05/09 09:41:58;;;;;;;6.68;5.97;;;;;;;17.97;59.23;96700.22;10356799;28;97174;-69
2022/05/09 09:47:07;;;;;;;7.57;6.30;;;;;;;18.28;58.24;96699.19;10343784;28;96802;-68
2022/05/09 09:52:21;;;;;;;6.95;6.32;;;;;;;18.53;57.47;96706.81;10342923;28;97080;-69
2022/05/09 09:57:28;;;;;;;7.28;6.57;;;;;;;18.78;56.87;96700.16;10339442;28;97260;-69
2022/05/09 10:02:32;;;;;;;6.38;5.78;;;;;;;18.91;57.36;96691.56;10345843;28;97703;-68
2022/05/09 10:07:38;;;;;;;6.85;6.22;;;;;;;19.01;57.29;96693.91;10344367;28;97000;-68
2022/05/09 10:12:44;;;;;;;6.45;5.85;;;;;;;19.02;56.86;96684.97;10339904;28;96682;-68
2022/05/09 10:17:48;;;;;;;6.03;5.40;;;;;;;19.14;56.86;96691.38;10347375;28;97003;-68
2022/05/09 10:28:15;;;;;;;5.32;4.82;;;;;;;19.31;55.56;96681.31;10343258;28;96924;-68
2022/05/09 10:33:31;;;;;;;5.93;5.43;;;;;;;19.36;55.73;96676.25;10340221;28;96739;-69
2022/05/09 10:38:39;;;;;;;5.57;5.07;;;;;;;19.55;55.30;96679.25;10345085;28;97005;-66
2022/05/09 10:43:47;;;;;;;5.57;5.07;;;;;;;19.66;54.24;96669.94;10341562;28;96731;-66
2022/05/09 10:49:00;;;;;;;5.05;4.57;;;;;;;19.85;54.37;96663.16;10338488;28;96865;-66
2022/05/09 10:54:11;;;;;;;5.43;4.93;;;;;;;19.85;54.37;96663.97;10354104;28;96810;-66
2022/05/09 10:59:21;;;;;;;5.07;4.20;;;;;;;20.01;54.04;96662.84;10342182;28;100117;-66
2022/05/09 11:04:25;;;;;;;5.05;4.53;;;;;;;20.18;53.89;96658.84;10342075;28;96842;-69
2022/05/09 11:09:45;;;;;;;5.88;4.90;;;;;;;20.11;52.41;96644.72;10337055;28;97019;-68
2022/05/09 11:15:03;;;;;;;4.80;4.40;;;;;;;20.22;53.13;96653.09;10341243;28;96761;-69
2022/05/09 11:20:16;;;;;;;4.38;3.90;;;;;;;20.49;52.34;96641.56;10343003;28;96890;-69
2022/05/09 11:25:40;;;;;;;4.60;3.92;;;;;;;20.60;52.21;96637.53;10347300;28;96749;-69
2022/05/09 11:30:46;;;;;;;4.15;3.75;;;;;;;20.83;51.28;96633.72;10345916;28;96836;-68
2022/05/09 11:35:57;;;;;;;4.28;3.20;;;;;;;20.79;51.31;96632.47;10340460;28;97042;-69
2022/05/09 11:41:11;;;;;;;3.72;3.42;;;;;;;20.88;50.33;96626.75;10341322;28;96825;-69
2022/05/09 11:46:25;;;;;;;4.30;3.25;;;;;;;21.02;49.84;96624.13;10341558;28;96991;-69
2022/05/09 11:51:42;;;;;;;3.95;3.10;;;;;;;21.08;49.66;96618.78;10335967;28;97047;-69
2022/05/09 11:56:48;;;;;;;3.55;3.25;;;;;;;21.04;49.37;96614.91;10340193;28;96759;-69
2022/05/09 12:01:57;;;;;;;3.50;3.05;;;;;;;21.24;48.25;96606.09;10340878;28;96887;-69
2022/05/09 12:07:08;;;;;;;4.15;3.00;;;;;;;21.18;48.88;96588.34;10337724;28;99826;-69
2022/05/09 12:12:43;;;;;;;2.90;2.70;;;;;;;21.17;47.49;96594.69;10338513;28;97405;-69
2022/05/09 12:18:08;;;;;;;3.17;2.75;;;;;;;21.30;47.41;96586.69;10342910;28;96758;-69
2022/05/09 12:23:13;;;;;;;4.15;3.15;;;;;;;21.47;47.29;96590.53;10347412;28;97281;-69
2022/05/09 12:28:22;;;;;;;3.20;2.90;;;;;;;21.68;46.86;96583.38;10358909;28;97048;-69
2022/05/09 12:33:38;;;;;;;3.42;2.70;;;;;;;21.92;46.10;96578.34;10342723;28;96771;-69
2022/05/09 12:38:45;;;;;;;3.47;2.60;;;;;;;21.87;46.36;96573.69;10346054;28;98349;-69
2022/05/09 12:43:51;;;;;;;3.20;2.90;;;;;;;22.09;45.56;96568.88;10346609;28;96784;-69
2022/05/09 12:49:00;;;;;;;3.30;2.63;;;;;;;22.34;45.29;96576.13;10342795;28;97172;-69
2022/05/09 12:54:08;;;;;;;2.63;2.42;;;;;;;22.66;45.25;96562.81;10358187;28;96893;-69
2022/05/09 12:59:14;;;;;;;2.95;2.60;;;;;;;22.72;45.93;96557.47;10346449;28;97024;-69
2022/05/09 13:04:25;;;;;;;3.35;2.75;;;;;;;22.95;44.29;96562.19;10348038;28;96930;-69
2022/05/09 13:09:31;;;;;;;2.92;2.58;;;;;;;23.42;43.82;96567.09;10340959;28;97000;-69
2022/05/09 13:14:39;;;;;;;3.28;2.50;;;;;;;23.54;43.13;96562.66;10347697;28;96865;-69
2022/05/09 13:19:48;;;;;;;3.05;2.75;;;;;;;23.10;43.69;96561.84;10344847;28;96950;-69
2022/05/09 13:24:53;;;;;;;3.40;3.10;;;;;;;23.22;43.74;96561.13;10352907;28;96905;-69
2022/05/09 13:30:05;;;;;;;4.60;2.60;;;;;;;23.49;43.43;96559.03;10356364;28;96919;-69
2022/05/09 13:35:22;;;;;;;4.30;2.80;;;;;;;23.69;43.21;96562.31;10346235;28;100155;-69
2022/05/09 13:40:26;;;;;;;2.55;2.35;;;;;;;23.94;43.31;96558.72;10344866;28;96796;-69
2022/05/09 13:45:30;;;;;;;;;;;;;;;24.07;43.48;96539.91;10341292;28;97306;-69
2022/05/09 13:50:37;;;;;;;2.80;2.50;;;;;;;23.92;43.05;96545.59;10346476;28;97108;-70
2022/05/09 13:55:43;;;;;;;3.45;2.47;;;;;;;23.92;42.80;96545.59;10356885;28;97925;-70
2022/05/09 14:00:49;;;;;;;2.85;2.65;;;;;;;23.92;41.77;96539.47;10340397;28;96921;-70
2022/05/09 14:05:57;;;;;;;2.67;2.45;;;;;;;23.54;42.55;96535.19;10343458;28;97637;-70
2022/05/09 14:11:03;;;;;;;4.18;2.50;;;;;;;22.89;43.84;96541.75;10343141;28;98836;-69
2022/05/09 14:16:12;;;;;;;2.50;2.30;;;;;;;22.50;44.00;96533.03;10341770;28;97148;-69
2022/05/09 14:21:19;;;;;;;2.95;2.75;;;;;;;22.08;44.96;96529.19;10340535;28;97004;-69
2022/05/09 14:31:54;;;;;;;3.67;2.72;;;;;;;21.20;47.34;96533.16;10343433;28;96805;-70
2022/05/09 14:37:21;;;;;;;4.50;2.95;;;;;;;20.92;48.17;96531.56;10338899;28;96997;-69
2022/05/09 14:42:24;;;;;;;3.20;2.78;;;;;;;20.85;48.59;96530.75;10338676;28;96829;-69
2022/05/09 14:47:31;;;;;;;3.40;3.08;;;;;;;20.88;48.45;96535.66;10352539;28;98618;-69
2022/05/09 14:52:47;;;;;;;3.88;3.00;;;;;;;20.96;48.18;96527.47;10348957;28;97454;-69
2022/05/09 14:57:52;;;;;;;4.50;3.17;;;;;;;21.22;48.28;96536.44;10338421;28;99881;-69
2022/05/09 15:02:56;;;;;;;3.38;2.75;;;;;;;21.20;48.26;96538.47;10352769;28;96769;-70
2022/05/09 15:08:01;;;;;;;3.15;2.85;;;;;;;21.16;49.11;96535.44;10342790;28;97103;-69
2022/05/09 15:13:04;;;;;;;3.03;2.72;;;;;;;21.25;49.14;96525.38;10339182;28;97748;-69
2022/05/09 15:18:07;;;;;;;3.08;2.70;;;;;;;21.30;48.97;96534.34;10339564;28;96779;-70
2022/05/09 15:23:12;;;;;;;2.88;2.60;;;;;;;21.50;48.24;96518.38;10342469;28;97150;-70
2022/05/09 15:28:16;;;;;;;2.55;2.35;;;;;;;21.31;47.85;96513.91;10340971;28;96938;-69
2022/05/09 15:33:19;;;;;;;2.22;2.00;;;;;;;21.26;46.51;96505.78;10337771;28;97089;-70
2022/05/09 15:38:24;;;;;;;1.95;1.60;;;;;;;21.71;45.24;96505.00;10338553;28;99113;-69
2022/05/09 15:43:29;;;;;;;1.70;1.60;;;;;;;22.51;44.08;96497.41;10351068;28;96808;-70
2022/05/09 15:48:32;;;;;;;2.20;2.00;;;;;;;23.79;43.19;96496.94;10349714;28;98766;-72
2022/05/09 15:53:37;;;;;;;3.40;2.50;;;;;;;25.63;40.84;96495.19;10354690;28;97508;-70
2022/05/09 15:58:42;;;;;;;3.08;2.63;;;;;;;27.11;38.84;96501.53;10354864;28;97887;-68
2022/05/09 16:03:45;;;;;;;3.00;2.70;;;;;;;26.99;38.03;96496.25;10354025;28;97005;-68
2022/05/09 16:14:15;;;;;;;3.30;2.60;;;;;;;26.29;39.39;96502.88;10366707;28;97038;-66
2022/05/09 16:19:23;;;;;;;2.53;2.33;;;;;;;26.21;38.98;96504.06;10351880;28;97545;-66
2022/05/09 16:24:28;;;;;;;3.42;2.20;;;;;;;26.49;38.31;96502.41;10367045;28;98181;-66
2022/05/09 16:29:32;;;;;;;2.80;2.58;;;;;;;27.12;37.58;96497.78;10364646;28;97771;-66
2022/05/09 16:34:37;;;;;;;2.70;2.47;;;;;;;27.75;36.72;96498.34;10359557;28;97338;-67
2022/05/09 16:39:44;;;;;;;3.05;2.20;;;;;;;27.77;36.30;96512.34;10355502;28;97143;-68
2022/05/09 16:44:55;;;;;;;3.88;2.22;;;;;;;27.98;35.79;96502.63;10349752;28;97805;-67
2022/05/09 16:49:58;;;;;;;2.30;2.10;;;;;;;28.82;34.83;96507.72;10349645;28;98030;-67
2022/05/09 16:55:04;;;;;;;2.90;2.25;;;;;;;29.38;34.17;96508.06;10368375;28;97475;-68
2022/05/09 17:00:10;;;;;;;2.85;2.38;;;;;;;29.71;33.47;96512.31;10364280;28;97817;-69
2022/05/09 17:05:14;;;;;;;2.92;2.47;;;;;;;29.59;33.65;96514.38;10357468;28;97007;-69
2022/05/09 17:10:21;;;;;;;2.40;2.20;;;;;;;29.89;32.83;96502.94;10349427;28;96962;-68
2022/05/09 17:15:29;;;;;;;2.28;2.08;;;;;;;29.53;33.20;96512.72;10365994;28;96925;-67
2022/05/09 17:20:34;;;;;;;11.05;9.95;;;;;;;29.78;33.05;96501.28;10350619;28;97246;-69
2022/05/09 17:25:41;;;;;;;9.02;8.23;;;;;;;29.65;32.91;96502.59;10346225;28;97034;-70
2022/05/09 17:30:45;;;;;;;3.30;2.15;;;;;;;29.14;33.08;96507.66;10364606;28;98443;-69
2022/05/09 17:41:19;;;;;;;3.58;2.70;;;;;;;28.42;34.37;96512.47;10358221;28;102446;-70
2022/05/09 17:46:27;;;;;;;3.15;2.28;;;;;;;27.50;36.51;96518.41;10342101;28;97432;-67
2022/05/09 17:51:33;;;;;;;2.53;2.33;;;;;;;25.88;39.16;96529.69;10349982;28;98612;-69
2022/05/09 17:56:38;;;;;;;4.05;2.38;;;;;;;24.44;41.42;96531.78;10346441;28;96968;-68
2022/05/09 18:01:46;;;;;;;3.00;2.58;;;;;;;23.46;43.15;96532.81;10344541;28;96815;-68
2022/05/09 18:06:50;;;;;;;2.90;2.60;;;;;;;22.63;44.54;96537.47;10341471;28;96816;-68
2022/05/09 18:11:58;;;;;;;3.22;2.55;;;;;;;21.75;46.42;96544.28;10348572;28;96973;-68
2022/05/09 18:17:10;;;;;;;3.03;2.78;;;;;;;20.99;47.90;96544.84;10348026;28;96849;-68
2022/05/09 18:22:13;;;;;;;3.45;2.65;;;;;;;20.54;48.93;96554.19;10348673;28;96877;-68
2022/05/09 18:27:19;;;;;;;2.83;2.42;;;;;;;20.13;49.98;96559.63;10338695;28;97699;-68
2022/05/09 18:32:24;;;;;;;3.70;2.80;;;;;;;19.87;49.95;96555.91;10363761;28;97091;-68
2022/05/09 18:37:31;;;;;;;2.72;2.50;;;;;;;19.61;50.20;96562.69;10371030;28;97028;-68
2022/05/09 18:42:38;;;;;;;3.17;2.75;;;;;;;19.44;50.76;96561.38;10357029;28;96850;-68
2022/05/09 18:47:41;;;;;;;3.58;3.03;;;;;;;19.49;50.79;96568.72;10346821;28;96891;-68
2022/05/09 18:52:45;;;;;;;3.00;2.80;;;;;;;19.10;51.59;96568.28;10356919;28;96831;-68
2022/05/09 18:57:54;;;;;;;3.17;2.80;;;;;;;18.77;52.40;96571.47;10347531;28;97327;-68
2022/05/09 19:02:56;;;;;;;3.58;3.00;;;;;;;18.52;53.84;96562.31;10347586;28;96985;-70
2022/05/09 19:08:04;;;;;;;4.78;3.20;;;;;;;18.26;54.40;96569.00;10350737;28;96887;-68
2022/05/09 19:13:11;;;;;;;4.43;2.97;;;;;;;18.07;55.51;96575.69;10339869;28;97302;-68
2022/05/09 19:18:19;;;;;;;3.53;3.15;;;;;;;17.91;55.27;96576.75;10349574;28;96974;-68
2022/05/09 19:23:22;;;;;;;3.38;3.08;;;;;;;17.61;56.27;96584.66;10341763;28;96751;-76
2022/05/09 19:28:34;;;;;;;3.75;3.20;;;;;;;17.50;56.00;96591.22;10356625;28;98447;-67
2022/05/09 19:33:37;;;;;;;3.80;3.20;;;;;;;17.32;56.92;96596.88;10336464;28;96982;-65
2022/05/09 19:38:40;;;;;;;4.03;3.00;;;;;;;17.20;56.89;96600.97;10340270;28;97141;-71
2022/05/09 19:43:45;;;;;;;15.03;11.93;;;;;;;17.10;56.88;96595.13;10354074;28;97838;-67
2022/05/09 19:48:48;;;;;;;3.92;3.53;;;;;;;17.05;57.11;96611.50;10340684;28;97990;-67
2022/05/09 19:54:10;;;;;;;3.53;3.10;;;;;;;17.12;56.74;96614.25;10357746;28;96882;-68
2022/05/09 19:59:15;;;;;;;4.57;3.45;;;;;;;16.99;57.49;96615.69;10340768;28;97031;-68
2022/05/09 20:04:18;;;;;;;5.38;3.53;;;;;;;16.98;57.54;96629.03;10339751;28;97635;-67
2022/05/09 20:09:21;;;;;;;5.18;3.75;;;;;;;16.84;57.80;96633.28;10345952;28;97129;-67
2022/05/09 20:14:27;;;;;;;4.75;4.35;;;;;;;16.38;59.65;96635.88;10349644;28;96803;-67
2022/05/09 20:19:29;;;;;;;6.38;4.18;;;;;;;15.84;60.93;96634.84;10371698;28;98118;-67
2022/05/09 20:24:33;;;;;;;5.25;4.43;;;;;;;15.84;60.98;96637.50;10344903;28;96908;-67
2022/05/09 20:35:10;;;;;;;8.23;5.65;;;;;;;15.68;61.79;96653.34;10223721;28;96996;-67
2022/05/09 20:40:17;;;;;;;7.40;4.45;;;;;;;15.32;63.34;96654.56;10235728;28;96935;-66
2022/05/09 20:45:22;;;;;;;24.05;18.85;;;;;;;15.26;63.19;96664.91;10225625;28;97080;-67
2022/05/09 20:50:25;;;;;;;4.57;3.92;;;;;;;15.37;62.67;96656.66;10227220;28;97235;-66
2022/05/09 20:55:29;;;;;;;5.68;4.25;;;;;;;15.29;62.29;96661.97;10214224;28;96965;-67
2022/05/09 21:00:33;;;;;;;4.72;4.22;;;;;;;15.00;64.18;96655.41;10202831;28;98196;-67
2022/05/09 21:05:36;;;;;;;5.45;4.85;;;;;;;14.92;63.57;96652.75;10224492;28;97903;-67
2022/05/09 21:10:59;;;;;;;4.53;4.13;;;;;;;14.79;64.17;96649.81;10342871;28;97148;-67
2022/05/09 21:16:04;;;;;;;4.38;3.97;;;;;;;14.63;64.98;96654.09;10363608;28;96958;-68
2022/05/09 21:21:13;;;;;;;4.78;4.38;;;;;;;14.48;65.77;96653.06;10357051;28;97161;-66
2022/05/09 21:26:17;;;;;;;6.95;4.80;;;;;;;14.43;65.66;96658.00;10360423;28;97118;-66
2022/05/09 21:31:21;;;;;;;5.03;4.22;;;;;;;14.24;66.92;96652.00;10366524;28;96901;-68
2022/05/09 21:36:26;;;;;;;5.15;4.65;;;;;;;14.07;67.45;96661.66;10366155;28;97144;-67
2022/05/09 21:41:32;;;;;;;6.47;5.07;;;;;;;14.16;66.30;96652.00;10363419;28;96771;-66
2022/05/09 21:46:37;;;;;;;5.47;4.13;;;;;;;14.32;65.27;96651.25;10369292;28;102623;-67
2022/05/09 21:51:40;;;;;;;4.13;3.72;;;;;;;14.28;65.67;96649.88;10364373;28;97199;-66
2022/05/09 21:56:43;;;;;;;3.63;3.33;;;;;;;14.09;65.72;96646.56;10368615;28;96978;-67
2022/05/09 22:01:47;;;;;;;5.07;3.88;;;;;;;14.03;65.52;96646.34;10363903;28;97375;-66
2022/05/09 22:06:51;;;;;;;4.03;3.50;;;;;;;13.99;65.81;96635.34;10365081;28;96789;-67
2022/05/09 22:11:56;;;;;;;5.47;4.30;;;;;;;13.91;65.78;96644.00;10365418;28;96874;-67
2022/05/09 22:17:00;;;;;;;9.82;6.82;;;;;;;13.93;65.20;96639.44;10351368;28;96974;-67
2022/05/09 22:22:08;;;;;;;6.78;5.57;;;;;;;13.58;66.66;96649.13;10360812;28;97444;-67
2022/05/09 22:27:11;;;;;;;4.72;4.18;;;;;;;13.44;67.67;96652.31;10358230;28;101144;-66
2022/05/09 22:32:17;;;;;;;4.70;3.55;;;;;;;13.49;66.69;96655.31;10358464;28;96996;-66
2022/05/09 22:37:33;;;;;;;5.63;4.53;;;;;;;13.21;67.55;96652.84;10364387;28;96966;-66
2022/05/09 22:42:37;;;;;;;4.68;4.28;;;;;;;13.12;68.20;96653.78;10361248;28;97017;-66
2022/05/09 22:47:41;;;;;;;5.13;4.30;;;;;;;12.93;68.98;96653.97;10356246;28;97731;-66
2022/05/09 22:52:44;;;;;;;5.93;4.80;;;;;;;12.82;68.83;96650.56;10360876;28;98021;-66
2022/05/09 22:57:51;;;;;;;5.80;4.72;;;;;;;12.97;68.25;96647.44;10352649;28;99573;-66
2022/05/09 23:02:59;;;;;;;6.43;5.55;;;;;;;12.81;69.62;96654.16;10353339;28;96894;-66
2022/05/09 23:08:03;;;;;;;7.40;5.72;;;;;;;12.64;70.15;96642.72;10339626;28;98825;-65
2022/05/09 23:13:12;;;;;;;6.63;5.47;;;;;;;12.79;69.42;96652.69;10344388;28;99172;-66
2022/05/09 23:18:17;;;;;;;7.22;5.85;;;;;;;12.47;70.84;96648.78;10352217;28;98586;-65
2022/05/09 23:23:20;;;;;;;5.50;4.97;;;;;;;12.18;71.35;96648.97;10360355;28;98671;-66
2022/05/09 23:28:23;;;;;;;5.25;4.70;;;;;;;12.24;71.44;96649.22;10346653;28;98065;-65
2022/05/09 23:33:30;;;;;;;8.02;5.53;;;;;;;12.25;71.19;96650.06;10353468;28;98125;-66
2022/05/09 23:38:35;;;;;;;7.43;5.07;;;;;;;12.12;71.84;96651.22;10344518;28;97524;-66
2022/05/09 23:43:41;;;;;;;6.05;5.45;;;;;;;12.09;72.11;96643.66;10353146;28;96938;-65
2022/05/09 23:48:50;;;;;;;6.32;4.68;;;;;;;12.09;71.77;96651.53;10352744;28;96791;-65
2022/05/09 23:53:53;;;;;;;5.32;4.82;;;;;;;12.15;71.75;96654.53;10345512;28;96889;-66
2022/05/09 23:58:56;;;;;;;5.15;4.65;;;;;;;12.08;71.39;96652.47;10344979;28;99092;-65
